Levant, KS

3:24 PM CDT on July 26, 2014 (GMT -0500)
KKSLEVAN2 Elev 3293 ft | 39.30 °N, 101.20 °W | Change Station

Current weather conditions updated 2 minutes ago

Clear
Clear
96.7 °F
Feels Like 95 °F
N
13.0
Wind Variable Wind from NNE
Gusts 16.0 mph

Today is forecast to be Warmer than yesterday.

Today
High -- | Low -- °F
--% Chance of Precip.
Yesterday
High -- | Low -- °F
Precip. -- in
6:39 AM 9:02 PM
Waning Crescent, 0% visible
Pressure 29.99 in
Visibility 10.0 miles
Clouds Clear
Heat Index 95 °F
Dew Point 55 °F
Humidity 25%
Rainfall 0.07 in
Snow Depth Not available.
UV 11 out of 12
Pollen 7.20 out of 12
Air Quality Not available.
Flu Activity Not available.
METAR KCBK 262015Z AUTO 35013KT 10SM CLR 36/16 A2999 RMK AO2

More Conditions Fewer Conditions

Pressure 29.99 in
Visibility 10.0 miles
Clouds Clear
Heat Index 95 °F
Dew Point 55 °F
Humidity 25%
Rainfall 0.07 in
Snow Depth Not available.
UV 11 out of 12
Pollen 7.20 out of 12
Air Quality Not available.
Flu Activity Not available.
METAR KCBK 262015Z AUTO 35013KT 10SM CLR 36/16 A2999 RMK AO2

More Conditions Fewer Conditions

10-Day Weather Forecast

Almanac

Astronomy

Jul. 26, 2014 Rise Set
Actual Time 6:39 AM CDT 9:02 PM CDT
Civil Twilight 6:09 AM CDT 9:33 PM CDT
Nautical Twilight 5:31 AM CDT 10:10 PM CDT
Astronomical Twilight 4:49 AM CDT 10:52 PM CDT
Moon 6:33 AM CDT 8:39 PM CDT
Length of Visible Light 15h 24m
Length of Day
14h 23m
Tomorrow will be 1m 46s shorter.
Waning Crescent, 0% of the Moon is Illuminated
Today
Waning Crescent
Jul 26
New
Aug 3
First Quarter
Aug 10
Full
Aug 17
Last Quarter

Today's Extremes

State Highs State Lows

Community

WunderPhotos

Upload Photos

1,737,696 photos uploaded!

Nearby

Snow Depth

Station Depth Elevation
No new snow has been reported.

Earthquake Activity

City Distance Mag. Time & Date
No recent earthquake activity has been reported nearby.
Minimum magnitude displayed is 2.5.

Coastal Water Temperatures

Place Temperature
No Stations Reporting

Nearby Weather Stations

Station Location Temp. Heat Index Dew Point Humidity Wind Precip. Elev Updated Type
Levant, KS 96.7 °F 95 °F 55 °F 25% NNE  at  13.0 mph 0.00 in / hr 3293 ft 3:22 PM CDT Rapid Fire
Jason, Colby, KS 96.0 °F 94 °F 55 °F 26% North  at  11.0 mph 0.00 in / hr 3192 ft 3:24 PM CDT Rapid Fire
630 Woofter Ave, Colby, KS 97.5 °F 96 °F 55 °F 24% NW  at  2.0 mph 0.00 in / hr 3186 ft 3:24 PM CDT Rapid Fire
145 E Cherry - K0FJ, Colby, KS 97.5 °F 95 °F 52 °F 22% NNE  at  12.0 mph 0.00 in / hr 3150 ft 3:24 PM CDT Normal
NE Colby, Colby, KS 98.6 °F 96 °F 53 °F 22% NNW  at  8.0 mph 0.00 in / hr 3097 ft 3:20 PM CDT Normal
MesoWest MONUMT , Monument, KS 83 °F 81 °F - - North  at  - 0.00 in / hr 3191 ft 12:15 PM CDT MADIS
Beaver Creek Weather, Goodland, KS 99.0 °F 97 °F 55 °F 23% NNW  at  17.0 mph 0.00 in / hr 3450 ft 2:24 PM MDT Rapid Fire

Show More Stations Show Fewer Stations